Time;durP1;ratioP1;P1;durP2;ratioP2;P2;SDS_P1;SDS_P2;PMS_P1;PMS_P2;Temp;Humidity;BMP_temperature;BMP_pressure;BME280_temperature;BME280_humidity;BME280_pressure;Samples;Min_cycle;Max_cycle;Signal;HPM_P1;HPM_P2
2022/09/16 00:00:15;;;;;;;2.10;0.90;;;;;;;12.17;78.43;101006.41;5036447;28;20029;-80
2022/09/16 00:02:41;;;;;;;3.08;0.95;;;;;;;12.19;78.41;101012.41;5050970;28;20029;-79
2022/09/16 00:05:07;;;;;;;3.50;0.85;;;;;;;12.21;78.39;101018.44;5036632;28;20424;-79
2022/09/16 00:07:32;;;;;;;6.53;1.10;;;;;;;12.21;78.71;101015.84;5037803;28;20045;-80
2022/09/16 00:09:58;;;;;;;2.95;0.98;;;;;;;12.24;78.34;101014.88;5036357;28;20057;-81
2022/09/16 00:12:23;;;;;;;1.80;0.85;;;;;;;12.24;78.44;101010.53;5040364;28;20400;-79
2022/09/16 00:14:51;;;;;;;3.28;1.10;;;;;;;12.26;78.31;101008.75;5042228;28;20029;-79
2022/09/16 00:17:16;;;;;;;3.30;1.05;;;;;;;12.27;78.56;101012.19;5041825;28;20104;-78
2022/09/16 00:19:41;;;;;;;2.65;1.20;;;;;;;12.26;78.35;101000.91;5041821;28;20112;-79
2022/09/16 00:22:07;;;;;;;3.67;1.00;;;;;;;12.27;78.41;100997.41;5039749;28;20025;-79
2022/09/16 00:24:32;;;;;;;4.22;1.27;;;;;;;12.28;78.49;101000.84;5042335;28;20029;-79
2022/09/16 00:26:57;;;;;;;4.00;1.30;;;;;;;12.28;78.52;100998.25;5024123;28;20404;-79
2022/09/16 00:29:22;;;;;;;5.65;1.20;;;;;;;12.27;78.68;100994.81;5021554;28;20060;-79
2022/09/16 00:31:48;;;;;;;3.38;1.10;;;;;;;12.26;78.82;100995.69;5033727;28;20515;-78
2022/09/16 00:34:13;;;;;;;4.57;1.48;;;;;;;12.23;78.84;100985.34;5037603;28;20021;-79
2022/09/16 00:36:38;;;;;;;4.18;1.30;;;;;;;12.24;79.00;100994.03;5036496;28;20028;-79
2022/09/16 00:39:04;;;;;;;4.15;1.17;;;;;;;12.23;79.03;101001.00;5037515;28;20044;-79
2022/09/16 00:41:32;;;;;;;2.65;1.20;;;;;;;12.22;79.25;100995.81;5022903;28;20145;-78
2022/09/16 00:44:23;;;;;;;4.32;1.25;;;;;;;12.23;79.15;100998.41;5039183;28;20044;-79
2022/09/16 00:46:49;;;;;;;3.55;1.05;;;;;;;12.23;79.32;100987.97;5037426;28;20116;-78
2022/09/16 00:49:22;;;;;;;3.58;1.17;;;;;;;12.23;79.33;100987.97;5018885;28;20103;-79
2022/09/16 00:51:51;;;;;;;2.45;1.17;;;;;;;12.23;79.57;100995.78;5037162;28;20634;-79
2022/09/16 00:54:18;;;;;;;4.85;1.25;;;;;;;12.22;79.40;100994.06;5035408;28;20036;-79
2022/09/16 00:56:46;;;;;;;3.25;1.15;;;;;;;12.21;79.33;100992.38;5043588;28;20480;-79
2022/09/16 00:59:25;;;;;;;5.03;1.10;;;;;;;12.21;79.39;100997.59;5035162;28;20365;-79
2022/09/16 01:01:54;;;;;;;4.03;1.35;;;;;;;12.21;79.36;100994.97;5038321;28;20032;-79
2022/09/16 01:04:25;;;;;;;3.60;1.10;;;;;;;12.18;79.37;100984.63;5036824;28;20091;-79
2022/09/16 01:06:51;;;;;;;1.98;1.08;;;;;;;12.18;79.31;100994.22;5036681;28;20068;-78
2022/09/16 01:09:19;;;;;;;2.13;1.00;;;;;;;12.16;79.49;100994.25;5037532;28;20111;-79
2022/09/16 01:11:45;;;;;;;4.30;1.20;;;;;;;12.13;79.42;100991.72;5037386;28;20335;-78
2022/09/16 01:17:04;;;;;;;4.20;1.33;;;;;;;12.09;79.45;100990.97;5045088;28;20438;-78
2022/09/16 01:20:02;;;;;;;3.55;1.30;;;;;;;12.08;79.15;100985.81;5053476;28;20079;-78
2022/09/16 01:22:45;;;;;;;3.50;1.23;;;;;;;12.05;79.22;100983.31;5034820;28;20086;-78
2022/09/16 01:25:22;;;;;;;3.67;1.30;;;;;;;12.02;79.45;100988.59;5039904;28;20049;-79
2022/09/16 01:28:26;;;;;;;4.28;1.20;;;;;;;11.99;79.39;100979.13;5037545;28;20029;-78
2022/09/16 01:31:37;;;;;;;2.83;1.20;;;;;;;11.96;79.47;100979.19;5035960;28;20100;-78
2022/09/16 01:34:30;;;;;;;5.53;1.40;;;;;;;11.96;79.50;100981.78;4974600;28;20038;-78
2022/09/16 01:37:05;;;;;;;3.97;1.23;;;;;;;11.96;79.74;100984.38;5036556;28;20109;-79
2022/09/16 01:39:52;;;;;;;2.40;1.30;;;;;;;11.94;79.51;100976.63;5041132;28;20056;-79
2022/09/16 01:42:35;;;;;;;4.43;1.40;;;;;;;11.92;79.76;100975.81;5039288;28;20029;-79
2022/09/16 01:45:27;;;;;;;3.95;1.58;;;;;;;11.91;79.47;100976.72;5017198;28;20091;-78
2022/09/16 01:48:07;;;;;;;4.85;1.50;;;;;;;11.88;79.47;100975.91;5036954;28;20103;-78
2022/09/16 01:50:51;;;;;;;2.70;1.25;;;;;;;11.86;79.20;100981.19;5034215;28;20555;-78
2022/09/16 01:53:33;;;;;;;5.38;1.60;;;;;;;11.82;79.36;100976.97;5036513;28;20091;-78
2022/09/16 01:56:04;;;;;;;3.60;1.40;;;;;;;11.78;79.83;100980.56;5032507;28;20033;-78
2022/09/16 01:58:32;;;;;;;4.55;1.15;;;;;;;11.75;79.73;100975.44;5041720;28;20124;-78
2022/09/16 02:01:06;;;;;;;3.40;1.58;;;;;;;11.70;80.20;100972.94;5042602;28;20033;-78
2022/09/16 02:03:35;;;;;;;5.65;1.70;;;;;;;11.67;80.15;100973.06;5037976;28;20025;-78
2022/09/16 02:06:16;;;;;;;4.35;1.50;;;;;;;11.65;79.83;100975.69;5052460;28;20049;-78
2022/09/16 02:08:56;;;;;;;2.85;1.27;;;;;;;11.64;80.42;100979.19;5042159;28;20033;-78
2022/09/16 02:11:22;;;;;;;2.55;1.13;;;;;;;11.62;80.33;100980.97;5035058;28;20044;-78
2022/09/16 02:14:00;;;;;;;4.68;1.30;;;;;;;11.60;80.04;100977.59;5038693;28;20018;-78
2022/09/16 02:16:33;;;;;;;4.07;1.40;;;;;;;11.57;80.09;100980.28;5034442;28;20025;-78
2022/09/16 02:19:04;;;;;;;4.30;1.50;;;;;;;11.53;80.09;100982.09;5036207;28;20033;-79
2022/09/16 02:21:32;;;;;;;2.77;1.37;;;;;;;11.54;80.23;100990.78;5034539;28;20113;-78
2022/09/16 02:24:02;;;;;;;3.17;1.35;;;;;;;11.52;80.61;100987.34;5034256;28;20424;-78
2022/09/16 02:26:38;;;;;;;4.97;1.33;;;;;;;11.52;80.51;100989.97;5036313;28;20412;-79
2022/09/16 02:29:19;;;;;;;5.85;1.60;;;;;;;11.53;80.29;100983.84;5034936;28;20025;-78
2022/09/16 02:31:47;;;;;;;4.03;1.48;;;;;;;11.50;80.37;100983.94;5021037;28;20033;-79
2022/09/16 02:34:19;;;;;;;5.30;1.77;;;;;;;11.48;80.55;100985.72;5036577;28;20026;-78
2022/09/16 02:36:51;;;;;;;5.40;1.90;;;;;;;11.47;80.39;100982.28;5039715;28;20028;-78
2022/09/16 02:39:20;;;;;;;;;;;;;;;11.53;79.34;100992.50;5045986;28;20029;-79
2022/09/16 02:41:46;;;;;;;3.97;1.50;;;;;;;11.48;80.19;100983.13;5040287;28;19917;-78
2022/09/16 02:44:11;;;;;;;5.00;1.27;;;;;;;11.46;80.09;100990.13;5040385;28;20021;-79
2022/09/16 02:46:55;;;;;;;4.05;1.58;;;;;;;11.47;80.21;100981.41;5039419;28;20392;-78
2022/09/16 02:49:40;;;;;;;4.18;1.60;;;;;;;11.46;79.73;100983.16;5038572;28;20060;-79
2022/09/16 02:52:14;;;;;;;5.38;1.75;;;;;;;11.45;79.40;100980.59;5035687;28;20032;-78
2022/09/16 02:55:03;;;;;;;2.50;1.55;;;;;;;11.46;79.36;100975.34;5038864;28;20385;-78
2022/09/16 02:57:29;;;;;;;5.07;1.80;;;;;;;11.44;79.56;100976.31;5039930;28;20056;-78
2022/09/16 02:59:55;;;;;;;5.07;1.60;;;;;;;11.44;79.81;100976.31;5036826;28;20145;-78
2022/09/16 03:02:21;;;;;;;4.20;1.35;;;;;;;11.45;79.39;100970.16;5040319;28;20074;-78
2022/09/16 03:04:47;;;;;;;9.07;1.42;;;;;;;11.45;79.35;100972.78;5043313;28;20025;-78
2022/09/16 03:07:13;;;;;;;6.07;1.67;;;;;;;11.45;79.49;100962.34;5039293;28;20120;-78
2022/09/16 03:09:42;;;;;;;6.63;2.10;;;;;;;11.45;79.61;100970.16;5040599;28;20029;-78
2022/09/16 03:12:22;;;;;;;6.95;1.70;;;;;;;11.46;79.82;100974.50;5045466;28;20021;-78
2022/09/16 03:15:21;;;;;;;4.82;1.70;;;;;;;11.47;79.47;100971.84;5040993;28;20036;-78
2022/09/16 03:18:03;;;;;;;6.88;1.88;;;;;;;11.46;79.59;100964.94;5036768;28;20033;-78
2022/09/16 03:20:31;;;;;;;;;;;;;;;11.51;78.99;100964.81;5043585;28;20159;-78
2022/09/16 03:23:15;;;;;;;4.60;1.38;;;;;;;11.49;79.31;100958.78;5040892;28;19931;-79
2022/09/16 03:25:59;;;;;;;5.40;1.30;;;;;;;11.50;79.59;100955.28;5040587;28;20041;-79
2022/09/16 03:28:32;;;;;;;4.20;1.27;;;;;;;11.48;79.47;100954.47;5027369;28;20021;-78
2022/09/16 03:31:25;;;;;;;2.88;1.30;;;;;;;11.49;78.99;100954.44;5040848;28;20108;-78
2022/09/16 03:34:12;;;;;;;2.45;1.25;;;;;;;11.47;78.75;100961.44;5043123;28;20083;-78
2022/09/16 03:36:44;;;;;;;2.42;1.10;;;;;;;11.44;79.21;100958.06;5038967;28;20184;-78
2022/09/16 03:39:10;;;;;;;3.78;1.10;;;;;;;11.43;79.14;100958.97;5038256;28;20036;-78
2022/09/16 03:41:36;;;;;;;2.47;1.00;;;;;;;11.41;78.70;100963.34;5046050;28;20056;-78
2022/09/16 03:44:02;;;;;;;2.58;1.10;;;;;;;11.39;79.44;100963.38;5039768;28;20441;-78
2022/09/16 03:46:28;;;;;;;1.67;1.02;;;;;;;11.39;79.19;100966.84;5035290;28;20075;-78
2022/09/16 03:48:56;;;;;;;3.03;0.93;;;;;;;11.37;79.39;100958.22;5035079;28;20781;-78
2022/09/16 03:51:22;;;;;;;3.95;1.25;;;;;;;11.38;79.66;100972.97;5037358;28;20063;-78
2022/09/16 03:53:49;;;;;;;3.40;0.73;;;;;;;11.36;79.53;100959.13;5035915;28;20434;-78
2022/09/16 03:56:14;;;;;;;3.75;1.02;;;;;;;11.37;80.17;100970.38;5037552;28;20036;-78
2022/09/16 03:58:39;;;;;;;3.33;0.65;;;;;;;11.37;80.98;100968.66;5043053;28;20037;-78
2022/09/16 04:01:04;;;;;;;2.30;0.70;;;;;;;11.38;80.24;100965.16;5040779;28;20036;-78
2022/09/16 04:03:30;;;;;;;2.45;0.75;;;;;;;11.35;80.28;100965.22;5035733;28;20047;-78
2022/09/16 04:05:56;;;;;;;2.05;0.63;;;;;;;11.35;80.38;100969.59;5035935;28;20493;-78
2022/09/16 04:08:22;;;;;;;2.60;0.88;;;;;;;11.33;80.83;100967.00;5039780;28;20059;-78
2022/09/16 04:10:55;;;;;;;3.92;0.73;;;;;;;11.32;80.65;100967.06;5037931;28;20032;-78
2022/09/16 04:13:21;;;;;;;1.80;0.60;;;;;;;11.30;80.88;100964.47;5036105;28;20036;-78
2022/09/16 04:15:46;;;;;;;2.83;0.80;;;;;;;11.29;80.99;100961.94;5039604;28;20025;-78
2022/09/16 04:18:11;;;;;;;2.85;0.88;;;;;;;11.30;81.09;100963.66;5036003;28;20052;-78
2022/09/16 04:20:37;;;;;;;4.20;1.48;;;;;;;11.31;81.34;100967.97;5036352;28;20029;-79
2022/09/16 04:23:02;;;;;;;1.75;0.80;;;;;;;11.34;81.68;100965.28;5041529;28;20055;-78
2022/09/16 04:25:27;;;;;;;4.32;0.80;;;;;;;11.35;81.32;100967.81;5040178;28;20474;-78
2022/09/16 04:27:53;;;;;;;4.18;1.00;;;;;;;11.34;80.79;100970.50;5042281;28;20033;-78
2022/09/16 04:30:19;;;;;;;2.47;0.55;;;;;;;11.31;81.08;100976.59;5034489;28;20038;-78
2022/09/16 04:32:44;;;;;;;2.95;0.65;;;;;;;11.30;81.09;100977.50;5036087;28;20128;-78
2022/09/16 04:35:10;;;;;;;2.42;0.70;;;;;;;11.29;81.26;100967.97;5037660;28;20100;-78
2022/09/16 04:37:35;;;;;;;2.00;0.63;;;;;;;11.29;81.52;100972.34;5037135;28;20036;-78
2022/09/16 04:40:00;;;;;;;0.63;0.40;;;;;;;11.28;81.19;100974.09;5036118;28;20043;-78
2022/09/16 04:42:26;;;;;;;1.90;0.40;;;;;;;11.29;81.18;100974.94;5038482;28;20047;-78
2022/09/16 04:44:51;;;;;;;3.08;0.80;;;;;;;11.26;81.23;100978.50;5037673;28;20025;-78
2022/09/16 04:47:16;;;;;;;2.08;0.80;;;;;;;11.23;81.47;100974.22;5036091;28;20423;-78
2022/09/16 04:49:42;;;;;;;3.05;0.90;;;;;;;11.20;81.51;100969.09;5036259;28;20493;-78
2022/09/16 04:52:07;;;;;;;2.70;0.63;;;;;;;11.19;81.74;100969.13;5034578;28;20037;-78
2022/09/16 04:54:32;;;;;;;2.75;0.52;;;;;;;11.18;81.43;100968.28;5036670;28;20044;-78
2022/09/16 04:56:57;;;;;;;1.23;0.50;;;;;;;11.20;81.63;100957.81;5025271;28;20575;-78
2022/09/16 04:59:23;;;;;;;2.03;0.80;;;;;;;11.22;81.71;100961.25;5034432;28;20044;-78
2022/09/16 05:01:48;;;;;;;2.78;0.50;;;;;;;11.22;81.47;100966.47;5040477;28;20026;-78
2022/09/16 05:04:13;;;;;;;1.33;0.60;;;;;;;11.19;81.59;100969.13;5038390;28;20056;-78
2022/09/16 05:06:40;;;;;;;2.42;0.55;;;;;;;11.19;81.53;100961.31;5036279;28;20072;-78
2022/09/16 05:09:06;;;;;;;2.60;0.90;;;;;;;11.19;81.87;100959.56;5035859;28;20029;-78
2022/09/16 05:11:37;;;;;;;2.20;0.60;;;;;;;11.22;82.17;100956.03;5046669;28;20102;-78
2022/09/16 05:14:06;;;;;;;2.20;0.70;;;;;;;11.25;82.42;100950.75;5049691;28;20021;-78
2022/09/16 05:16:32;;;;;;;3.13;0.60;;;;;;;11.29;82.21;100960.16;5044848;28;20033;-78
2022/09/16 05:18:59;;;;;;;3.58;0.60;;;;;;;11.30;82.15;100972.28;5039908;28;20033;-78
2022/09/16 05:21:26;;;;;;;2.42;0.85;;;;;;;11.29;81.88;100972.34;5040701;28;20027;-78
2022/09/16 05:23:54;;;;;;;3.25;0.70;;;;;;;11.28;81.87;100976.69;5036116;28;20025;-78
2022/09/16 05:26:23;;;;;;;3.47;0.65;;;;;;;11.27;82.32;100968.94;5037456;28;20029;-79
2022/09/16 05:28:52;;;;;;;3.22;0.60;;;;;;;11.29;82.37;100973.19;5035867;28;20033;-78
2022/09/16 05:31:22;;;;;;;3.22;0.60;;;;;;;11.32;82.01;100967.91;5035276;28;20029;-78
2022/09/16 05:33:57;;;;;;;2.25;0.70;;;;;;;11.36;81.93;100974.75;5038139;28;20040;-79
2022/09/16 05:36:23;;;;;;;2.97;0.60;;;;;;;11.38;82.02;100967.75;5035728;28;20090;-78
2022/09/16 05:38:49;;;;;;;2.63;0.70;;;;;;;11.41;81.56;100965.97;5038705;28;20029;-78
2022/09/16 05:41:14;;;;;;;3.30;0.70;;;;;;;11.43;81.56;100958.97;5037146;28;20030;-78
2022/09/16 05:43:40;;;;;;;2.72;0.75;;;;;;;11.45;81.22;100962.34;5047537;28;20036;-78
2022/09/16 05:46:05;;;;;;;2.28;0.52;;;;;;;11.46;81.06;100964.06;5038401;28;20070;-78
2022/09/16 05:48:32;;;;;;;2.28;0.60;;;;;;;11.48;81.15;100967.47;5042002;28;20479;-79
2022/09/16 05:50:58;;;;;;;2.33;0.57;;;;;;;11.49;81.00;100972.66;5052907;28;20480;-78
2022/09/16 05:53:25;;;;;;;3.00;0.50;;;;;;;11.50;80.99;100981.31;5036824;28;20029;-78
2022/09/16 05:56:03;;;;;;;2.17;0.52;;;;;;;11.51;80.61;100970.00;5033555;28;20025;-78
2022/09/16 05:58:30;;;;;;;2.50;0.45;;;;;;;11.49;80.41;100980.50;5037191;28;20013;-78
2022/09/16 06:01:04;;;;;;;1.75;0.47;;;;;;;11.48;79.86;100983.13;5043952;28;20080;-78
2022/09/16 06:03:31;;;;;;;0.88;0.40;;;;;;;11.42;79.79;100999.78;5036116;28;20021;-79
2022/09/16 06:06:04;;;;;;;1.33;0.40;;;;;;;11.38;79.68;100996.41;5036915;28;20045;-78
2022/09/16 06:08:32;;;;;;;1.83;0.50;;;;;;;11.34;79.77;100999.13;5036557;28;20033;-78
2022/09/16 06:11:07;;;;;;;2.60;0.60;;;;;;;11.34;79.97;100991.31;5036555;28;20053;-78
2022/09/16 06:13:32;;;;;;;1.60;0.32;;;;;;;11.36;79.60;101000.78;5032570;28;20090;-78
2022/09/16 06:15:58;;;;;;;1.08;0.40;;;;;;;11.36;79.91;100990.38;5040008;28;20476;-78
2022/09/16 06:18:25;;;;;;;1.00;0.30;;;;;;;11.38;79.75;101004.22;5036015;28;20057;-78
2022/09/16 06:20:50;;;;;;;1.05;0.35;;;;;;;11.42;79.51;101004.97;5041799;28;20040;-78
2022/09/16 06:23:16;;;;;;;1.73;0.30;;;;;;;11.41;79.73;101012.84;5035359;28;20021;-78
2022/09/16 06:25:42;;;;;;;3.42;0.60;;;;;;;11.38;79.51;100999.00;5014145;28;20395;-78
2022/09/16 06:28:10;;;;;;;2.50;0.50;;;;;;;11.39;80.27;101000.72;5034696;28;20025;-78
2022/09/16 06:30:35;;;;;;;1.90;0.52;;;;;;;11.42;80.85;100983.31;5036192;28;20048;-78
2022/09/16 06:33:01;;;;;;;2.85;0.65;;;;;;;11.45;80.91;100988.41;5035039;28;20025;-78
2022/09/16 06:35:26;;;;;;;1.35;0.50;;;;;;;11.49;81.07;101000.47;5032616;28;20380;-78
2022/09/16 06:37:53;;;;;;;1.70;0.50;;;;;;;11.54;81.30;101003.81;5036036;28;20021;-79
2022/09/16 06:40:18;;;;;;;2.00;0.70;;;;;;;11.57;81.93;101006.34;5040734;28;20029;-78
2022/09/16 06:42:43;;;;;;;2.67;0.70;;;;;;;11.60;81.70;101001.03;5041564;28;20032;-78
2022/09/16 06:45:09;;;;;;;2.83;0.70;;;;;;;11.62;81.79;101008.81;5034760;28;20033;-78
2022/09/16 06:47:34;;;;;;;1.95;0.73;;;;;;;11.63;81.74;101013.13;5041212;28;20384;-78
2022/09/16 06:50:00;;;;;;;1.98;0.70;;;;;;;11.61;82.33;101010.56;5036405;28;20064;-78
2022/09/16 06:52:26;;;;;;;1.52;0.63;;;;;;;11.61;82.45;101021.00;5042612;28;20470;-78
2022/09/16 06:54:53;;;;;;;1.65;0.68;;;;;;;11.60;82.45;101019.28;5043725;28;20376;-78
2022/09/16 06:57:21;;;;;;;2.30;0.70;;;;;;;11.58;83.37;101010.66;5042265;28;20025;-78
2022/09/16 06:59:46;;;;;;;3.50;0.90;;;;;;;11.57;82.92;101011.53;5025722;28;20494;-78
2022/09/16 07:02:12;;;;;;;3.47;0.80;;;;;;;11.59;83.25;101011.50;5035985;28;20060;-78
2022/09/16 07:04:37;;;;;;;2.00;0.65;;;;;;;11.64;82.88;101012.22;5025602;28;20087;-78
2022/09/16 07:07:03;;;;;;;3.08;0.80;;;;;;;11.68;83.08;101019.91;5032883;28;20117;-78
2022/09/16 07:09:29;;;;;;;3.45;0.70;;;;;;;11.72;82.82;101015.47;5039213;28;20419;-78
2022/09/16 07:11:54;;;;;;;2.67;0.70;;;;;;;11.78;82.53;101012.69;5046484;28;20086;-78
2022/09/16 07:14:19;;;;;;;3.63;0.70;;;;;;;11.82;82.59;101013.44;5031854;28;20026;-78
2022/09/16 07:16:45;;;;;;;2.42;0.68;;;;;;;11.88;82.04;101015.03;5033216;28;20116;-78
2022/09/16 07:19:10;;;;;;;2.67;0.65;;;;;;;11.89;81.81;101015.00;5051100;28;20503;-78
2022/09/16 07:21:35;;;;;;;1.90;0.70;;;;;;;11.91;81.67;101013.22;5048294;28;20489;-78
2022/09/16 07:24:02;;;;;;;2.45;0.70;;;;;;;11.95;81.88;101013.97;5039976;28;20503;-78
2022/09/16 07:26:30;;;;;;;3.08;0.70;;;;;;;11.97;81.06;101020.84;5035396;28;20050;-78
2022/09/16 07:28:58;;;;;;;2.33;0.60;;;;;;;12.01;81.39;101019.03;5038323;28;20032;-78
2022/09/16 07:31:26;;;;;;;2.22;0.70;;;;;;;12.05;80.48;101019.81;5032775;28;20030;-78
2022/09/16 07:33:54;;;;;;;2.10;0.65;;;;;;;12.07;80.29;101018.00;5054051;28;20028;-78
2022/09/16 07:36:23;;;;;;;1.63;0.40;;;;;;;12.10;79.81;101010.09;5061316;28;20028;-78
2022/09/16 07:38:49;;;;;;;2.17;0.50;;;;;;;12.12;79.66;101010.91;5074983;28;20038;-78
2022/09/16 07:41:21;;;;;;;2.60;0.57;;;;;;;12.14;79.64;101009.97;5064405;28;20045;-78
2022/09/16 07:43:47;;;;;;;4.82;0.80;;;;;;;12.23;80.47;101021.88;5035048;28;20088;-78
2022/09/16 07:46:15;;;;;;;2.50;0.50;;;;;;;12.36;80.43;101030.19;5035345;28;20423;-78
2022/09/16 07:48:41;;;;;;;1.90;0.50;;;;;;;12.48;79.38;101018.50;5034475;28;20071;-78
2022/09/16 07:51:09;;;;;;;2.20;0.60;;;;;;;12.63;79.00;101011.13;5037851;28;20026;-78
2022/09/16 07:53:35;;;;;;;1.67;0.55;;;;;;;12.71;78.05;101022.16;5051339;28;20021;-78
2022/09/16 07:56:03;;;;;;;2.00;0.43;;;;;;;12.68;76.80;101020.50;5039034;28;20052;-79
2022/09/16 07:58:29;;;;;;;1.80;0.50;;;;;;;12.61;76.85;101029.44;5038511;28;20548;-78
2022/09/16 08:00:54;;;;;;;1.25;0.47;;;;;;;12.52;76.51;101019.28;5045599;28;20025;-78
2022/09/16 08:03:19;;;;;;;1.75;0.40;;;;;;;12.49;78.66;101025.44;5041564;28;20022;-78
2022/09/16 08:05:45;;;;;;;2.15;0.40;;;;;;;12.50;78.27;101031.53;5040610;28;20144;-78
2022/09/16 08:08:10;;;;;;;2.88;0.40;;;;;;;12.48;77.31;101043.75;5050098;28;20440;-78
2022/09/16 08:10:36;;;;;;;2.53;0.40;;;;;;;12.47;78.64;101042.88;5045353;28;20043;-78
2022/09/16 08:13:07;;;;;;;5.00;0.68;;;;;;;12.54;79.63;101033.16;5041313;28;20049;-78
2022/09/16 08:15:32;;;;;;;2.55;0.50;;;;;;;12.60;78.88;101040.75;5037834;28;20112;-78
2022/09/16 08:17:57;;;;;;;4.43;0.70;;;;;;;12.65;78.16;101036.25;5037156;28;20112;-78
2022/09/16 08:20:24;;;;;;;3.28;0.50;;;;;;;12.71;78.23;101037.81;5051054;28;20025;-78
2022/09/16 08:22:50;;;;;;;2.22;0.80;;;;;;;12.72;76.12;101042.13;5038394;28;20032;-79
2022/09/16 08:25:15;;;;;;;2.55;0.60;;;;;;;12.70;77.63;101049.16;5047456;28;20033;-78
2022/09/16 08:27:40;;;;;;;3.15;0.80;;;;;;;12.73;78.13;101044.69;5054232;28;20033;-78
2022/09/16 08:30:06;;;;;;;4.70;0.47;;;;;;;12.78;77.50;101041.97;5042104;28;20022;-78
2022/09/16 08:32:32;;;;;;;2.13;0.63;;;;;;;12.83;77.53;101049.63;5038287;28;20389;-78
2022/09/16 08:34:57;;;;;;;3.00;0.52;;;;;;;12.84;77.56;101052.19;5042872;28;20081;-78
2022/09/16 08:37:22;;;;;;;4.78;0.60;;;;;;;12.83;77.77;101055.69;5047136;28;20025;-79
2022/09/16 08:39:48;;;;;;;4.50;0.70;;;;;;;12.83;77.74;101045.25;5044085;28;20051;-78
2022/09/16 08:42:22;;;;;;;2.67;0.93;;;;;;;12.90;77.50;101057.22;5037348;28;20025;-78
2022/09/16 08:45:09;;;;;;;3.35;0.73;;;;;;;12.98;77.32;101054.38;5047770;28;20029;-79
2022/09/16 08:48:06;;;;;;;2.58;0.77;;;;;;;13.08;76.99;101052.31;5036883;28;20063;-78
2022/09/16 08:50:45;;;;;;;1.10;0.60;;;;;;;13.15;76.33;101050.34;5045619;28;20437;-79
2022/09/16 08:53:31;;;;;;;2.13;0.75;;;;;;;13.21;76.81;101051.00;5043723;28;20033;-78
2022/09/16 08:55:57;;;;;;;2.28;0.88;;;;;;;13.27;75.78;101049.09;5037434;28;20040;-78
2022/09/16 08:58:32;;;;;;;2.17;0.70;;;;;;;13.32;75.79;101052.41;5036987;28;20029;-78
2022/09/16 09:01:03;;;;;;;4.05;1.05;;;;;;;13.38;75.30;101046.94;5041238;28;20036;-78
2022/09/16 09:03:41;;;;;;;3.35;0.70;;;;;;;13.45;75.76;101040.66;5040117;28;20039;-78
2022/09/16 09:06:36;;;;;;;3.28;0.70;;;;;;;13.50;74.80;101041.31;5041253;28;20057;-79
2022/09/16 09:09:30;;;;;;;1.65;0.75;;;;;;;13.60;75.29;101051.47;5045458;28;20507;-79
2022/09/16 09:12:08;;;;;;;1.98;0.60;;;;;;;13.67;73.91;101050.34;5042774;28;20033;-79
2022/09/16 09:15:02;;;;;;;1.70;0.60;;;;;;;13.77;72.93;101048.25;5042478;28;20029;-78
2022/09/16 09:17:27;;;;;;;2.25;0.60;;;;;;;13.81;72.80;101045.50;5044478;28;20445;-79
2022/09/16 09:20:08;;;;;;;2.65;0.60;;;;;;;13.88;72.50;101053.09;5043927;28;20472;-85
2022/09/16 09:23:06;;;;;;;1.55;0.43;;;;;;;13.90;72.76;101051.28;5044848;28;20037;-79
2022/09/16 09:25:56;;;;;;;4.60;0.60;;;;;;;13.99;73.16;101045.72;5041710;28;20032;-78
2022/09/16 09:28:56;;;;;;;2.60;0.50;;;;;;;14.10;72.23;101051.41;5043958;28;20043;-79
2022/09/16 09:31:30;;;;;;;1.52;0.60;;;;;;;14.14;68.98;101043.44;5020183;28;20052;-79
2022/09/16 09:34:35;;;;;;;4.35;0.47;;;;;;;14.22;70.03;101044.00;5044814;28;20036;-79
2022/09/16 09:37:09;;;;;;;3.38;0.70;;;;;;;14.19;67.97;101038.88;5043164;28;20041;-80
2022/09/16 09:39:41;;;;;;;3.05;0.70;;;;;;;14.24;68.16;101026.47;5045193;28;21168;-79
2022/09/16 09:42:24;;;;;;;3.30;0.50;;;;;;;14.29;69.53;101045.47;5036267;28;20029;-79
2022/09/16 09:45:08;;;;;;;3.95;0.50;;;;;;;14.04;64.20;101093.47;5040944;28;20036;-78
2022/09/16 09:47:42;;;;;;;1.65;0.60;;;;;;;13.55;67.88;101122.22;5040332;28;20044;-78
2022/09/16 09:50:13;;;;;;;5.05;0.40;;;;;;;13.02;69.65;101107.34;5044890;28;20200;-78
2022/09/16 09:52:51;;;;;;;1.63;0.30;;;;;;;12.63;71.69;101103.31;5042918;28;20975;-77
2022/09/16 09:55:19;;;;;;;0.93;0.20;;;;;;;12.33;71.92;101092.91;5038252;28;20029;-78
2022/09/16 09:58:15;;;;;;;0.95;0.20;;;;;;;12.06;72.53;101099.75;5037840;28;20056;-78
2022/09/16 10:00:41;;;;;;;0.52;0.20;;;;;;;11.81;73.71;101100.38;5036978;28;20140;-78
2022/09/16 10:03:11;;;;;;;0.63;0.10;;;;;;;11.64;75.11;101099.06;5039129;28;20044;-78
2022/09/16 10:05:37;;;;;;;1.35;0.30;;;;;;;11.51;75.16;101092.47;5035811;28;20510;-78
2022/09/16 10:08:22;;;;;;;0.30;0.20;;;;;;;11.40;75.87;101084.91;5038135;28;20044;-78
2022/09/16 10:10:51;;;;;;;0.55;0.20;;;;;;;11.36;77.40;101086.75;5039591;28;20060;-82
2022/09/16 10:13:18;;;;;;;1.63;0.20;;;;;;;11.39;78.08;101081.47;5034584;28;20029;-77
2022/09/16 10:15:44;;;;;;;0.50;0.20;;;;;;;11.45;79.58;101076.97;5032212;28;20035;-78
2022/09/16 10:18:26;;;;;;;1.00;0.30;;;;;;;11.51;77.53;101076.84;5037244;28;20036;-77
2022/09/16 10:21:13;;;;;;;3.70;0.40;;;;;;;11.49;76.81;101078.63;5039758;28;20041;-77
2022/09/16 10:23:39;;;;;;;3.10;0.50;;;;;;;11.51;78.84;101074.22;5044522;28;20033;-77
2022/09/16 10:26:23;;;;;;;0.90;0.30;;;;;;;11.54;79.24;101074.16;5042088;28;20091;-78
2022/09/16 10:29:18;;;;;;;2.45;0.55;;;;;;;11.60;78.96;101070.53;5041546;28;20079;-78
2022/09/16 10:31:44;;;;;;;1.42;0.38;;;;;;;11.56;78.27;101080.19;5045989;28;20371;-77
2022/09/16 10:34:31;;;;;;;3.03;0.30;;;;;;;11.55;78.96;101078.47;5040729;28;20460;-77
2022/09/16 10:37:20;;;;;;;1.67;0.47;;;;;;;11.56;80.72;101069.75;5044252;28;20043;-77
2022/09/16 10:39:52;;;;;;;2.00;0.45;;;;;;;11.56;80.54;101072.38;5037543;28;20051;-77
2022/09/16 10:42:26;;;;;;;1.33;0.50;;;;;;;11.57;81.26;101071.47;5041108;28;20025;-77
2022/09/16 10:44:56;;;;;;;1.83;0.45;;;;;;;11.56;80.53;101059.34;5035594;28;20029;-78
2022/09/16 10:47:24;;;;;;;0.80;0.22;;;;;;;11.59;79.94;101064.47;5035893;28;20059;-77
2022/09/16 10:50:00;;;;;;;0.85;0.32;;;;;;;11.62;80.28;101059.16;5040139;28;20111;-77
2022/09/16 10:52:28;;;;;;;3.10;0.50;;;;;;;11.65;80.73;101064.28;5037760;28;20785;-78
2022/09/16 10:54:54;;;;;;;1.35;0.40;;;;;;;11.71;81.47;101063.28;5043297;28;20064;-77
2022/09/16 10:57:25;;;;;;;1.88;0.32;;;;;;;11.77;81.50;101067.47;5047141;28;20079;-78
2022/09/16 11:00:07;;;;;;;3.67;0.50;;;;;;;11.81;80.55;101064.75;5040444;28;20029;-78
2022/09/16 11:03:02;;;;;;;3.75;0.40;;;;;;;11.89;79.30;101067.16;5039240;28;20032;-78
2022/09/16 11:05:46;;;;;;;1.13;0.40;;;;;;;11.95;80.14;101060.91;5039316;28;20133;-77
2022/09/16 11:08:17;;;;;;;1.85;0.38;;;;;;;12.07;80.94;101059.72;5039675;28;20730;-78
2022/09/16 11:10:54;;;;;;;2.92;0.70;;;;;;;12.17;78.74;101070.75;5041768;28;20025;-78
2022/09/16 11:13:45;;;;;;;2.10;0.65;;;;;;;12.27;79.28;101061.75;5023537;28;20021;-78
2022/09/16 11:16:52;;;;;;;3.42;0.50;;;;;;;12.42;79.50;101070.91;5040895;28;20033;-78
2022/09/16 11:19:40;;;;;;;1.30;0.40;;;;;;;12.47;77.46;101061.16;5021049;28;20091;-78
2022/09/16 11:22:31;;;;;;;1.80;0.57;;;;;;;12.59;78.67;101063.41;5040727;28;20408;-78
2022/09/16 11:25:26;;;;;;;2.28;0.30;;;;;;;12.66;77.06;101052.75;5040018;28;20033;-78
2022/09/16 11:28:10;;;;;;;1.95;0.50;;;;;;;12.69;76.08;101057.91;5040610;28;20052;-77
2022/09/16 11:30:46;;;;;;;3.45;0.40;;;;;;;12.81;74.62;101061.88;5041765;28;20129;-78
2022/09/16 11:33:23;;;;;;;2.75;0.47;;;;;;;12.97;75.61;101059.66;5042601;28;20021;-78
2022/09/16 11:36:18;;;;;;;2.35;0.40;;;;;;;13.05;74.69;101063.72;5039398;28;20601;-78
2022/09/16 11:38:58;;;;;;;1.98;0.60;;;;;;;13.10;74.91;101073.13;5040612;28;20094;-78
2022/09/16 11:41:58;;;;;;;1.25;0.38;;;;;;;13.11;74.39;101070.50;5022805;28;20058;-78
2022/09/16 11:44:43;;;;;;;2.33;0.40;;;;;;;13.10;74.59;101068.78;5034480;28;20114;-78
2022/09/16 11:47:27;;;;;;;1.90;0.40;;;;;;;13.23;74.79;101071.00;5038056;28;20037;-78
2022/09/16 11:50:21;;;;;;;1.38;0.40;;;;;;;13.47;74.94;101067.59;5037645;28;20644;-79
2022/09/16 11:53:01;;;;;;;2.58;0.40;;;;;;;13.62;73.17;101081.03;5037022;28;20108;-78